Kalmar Nyckel — WCY3589 — position and weather

sailwx.info

Track history (hours):
 
Tides and Currents Weather Stations Pressure Air Temp Water Temp Dewpoint Dewpoint Depression Visibility Wind Speed Wind Dir Waves Ship Positions

Kalmar Nyckel (United States)

Ship's website: http://www.kalmarnyckel.org/

Owner: KALMAR NYCKEL FOUNDATION, WILMINGTON, DE. More information available from US FCC via Universal Licensing System.

Last reported at 2017-Nov-01 19:33 UTC. Time now 2017-Nov-17 19:26 UTC.
Position N 39°44' W 075°32'.
Warning: this ship's position is 15 days out of date.

; draft 3.1 m.

Type: Ship. MMSI: 367004000.

Date/timePositionNaut miles runAvg speedWind from/ knotsBaromVisibWave heightAir tempDewpointWater temp
2017-Nov-01 19:33N 39°44' W 075°32'0 0.2
2017-Nov-01 19:30N 39°44' W 075°32'0 0.0
2017-Nov-01 19:00N 39°44' W 075°32'0 0.0
2017-Nov-01 18:30N 39°44' W 075°32'18 1.1
2017-Nov-01 02:00N 39°32' W 075°49'0 0.0
2017-Nov-01 01:30N 39°32' W 075°49'0 0.0
2017-Nov-01 01:00N 39°32' W 075°49'0 0.0
2017-Nov-01 00:30N 39°32' W 075°49'0 0.0
2017-Nov-01 00:00N 39°32' W 075°49'0 0.0
2017-Oct-31 23:30N 39°32' W 075°49'0 0.0
2017-Oct-31 23:00N 39°32' W 075°49'0 0.0
2017-Oct-31 22:30N 39°32' W 075°49'0 0.0
2017-Oct-31 22:00N 39°32' W 075°49'0 0.0
2017-Oct-31 21:30N 39°32' W 075°49'0 0.0
2017-Oct-31 21:00N 39°32' W 075°49'0 0.5
2017-Oct-31 20:30N 39°32' W 075°49'4 8.9
2017-Oct-31 20:00N 39°30' W 075°55'5 9.7
2017-Oct-31 19:30N 39°27' W 075°59'4 8.9
2017-Oct-31 19:00N 39°24' W 076°03'15 2.6
2017-Oct-31 13:08N 39°08' W 076°04'1 4.5
2017-Oct-31 12:57N 39°09' W 076°04'2 4.4
2017-Oct-31 12:31N 39°11' W 076°03'1 0.0
2017-Oct-29 19:18N 39°12' W 076°04'1 1.9
2017-Oct-29 19:01N 39°12' W 076°04'1 1.7
2017-Oct-29 18:28N 39°11' W 076°04'0 0.5
2017-Oct-29 18:00N 39°11' W 076°03'1 1.9
2017-Oct-29 17:26N 39°12' W 076°04'0 0.0
2017-Oct-29 06:50N 39°12' W 076°04'0 0.0
2017-Oct-29 06:30N 39°12' W 076°04'0 0.0
2017-Oct-29 05:10N 39°12' W 076°04'0 0.0
2017-Oct-29 05:01N 39°12' W 076°04'0 0.0
2017-Oct-29 04:30N 39°12' W 076°04'0 0.0
2017-Oct-29 03:56N 39°12' W 076°04'0 0.0
2017-Oct-28 16:22N 39°12' W 076°04'1 2.2
2017-Oct-28 15:42N 39°11' W 076°03'0 0.2
2017-Oct-28 15:30N 39°11' W 076°03'2 0.7
2017-Oct-28 13:12N 39°12' W 076°04'0 0.0
2017-Oct-28 12:27N 39°12' W 076°04'0 0.0
2017-Oct-28 12:00N 39°12' W 076°04'0 0.0
2017-Oct-28 11:28N 39°12' W 076°04'0 0.0
2017-Oct-28 11:01N 39°12' W 076°04'0 0.0
2017-Oct-28 10:29N 39°12' W 076°04'0 0.0
2017-Oct-28 10:00N 39°12' W 076°04'0 0.0
2017-Oct-28 09:30N 39°12' W 076°04'0 0.0
2017-Oct-28 09:00N 39°12' W 076°04'0 0.0
2017-Oct-28 08:31N 39°12' W 076°04'0 0.0
2017-Oct-28 02:20N 39°12' W 076°04'0 0.0
2017-Oct-28 00:02N 39°12' W 076°04'2 0.4
2017-Oct-27 19:59N 39°11' W 076°03'2 0.3
2017-Oct-27 14:09N 39°12' W 076°04'0 0.0
2017-Oct-27 13:58N 39°12' W 076°04'0 0.0
2017-Oct-27 13:30N 39°12' W 076°04'0 0.0
2017-Oct-27 13:00N 39°12' W 076°04'0 0.0
2017-Oct-27 12:30N 39°12' W 076°04'0 0.0
2017-Oct-27 12:00N 39°12' W 076°04'0 0.0
2017-Oct-27 11:29N 39°12' W 076°04'0 0.0
2017-Oct-27 07:18N 39°12' W 076°04'0 0.0
2017-Oct-27 05:22N 39°12' W 076°04'0 0.0
2017-Oct-25 12:51N 39°12' W 076°04'0 0.0
2017-Oct-25 12:30N 39°12' W 076°04'0 0.0
2017-Oct-25 11:56N 39°12' W 076°04'0 0.0
2017-Oct-25 11:28N 39°12' W 076°04'0 0.0
2017-Oct-25 10:55N 39°12' W 076°04'0 0.0
2017-Oct-25 10:26N 39°12' W 076°04'0 0.0
2017-Oct-25 09:58N 39°12' W 076°04'0 0.0
2017-Oct-25 09:26N 39°12' W 076°04'0 0.0
2017-Oct-25 08:59N 39°12' W 076°04'0 0.0
2017-Oct-25 08:26N 39°12' W 076°04'0 0.0
2017-Oct-25 07:57N 39°12' W 076°04'0 0.0
2017-Oct-25 07:19N 39°12' W 076°04'0 0.0
2017-Oct-25 06:59N 39°12' W 076°04'0 0.0
2017-Oct-25 06:31N 39°12' W 076°04'0 0.0
2017-Oct-25 06:00N 39°12' W 076°04'0 0.0
2017-Oct-25 05:30N 39°12' W 076°04'0 0.0
2017-Oct-25 05:00N 39°12' W 076°04'0 0.0
2017-Oct-25 04:31N 39°12' W 076°04'0 0.0
2017-Oct-25 04:01N 39°12' W 076°04'0 0.0
2017-Oct-25 03:30N 39°12' W 076°04'0 0.0
2017-Oct-25 03:01N 39°12' W 076°04'0 0.0
2017-Oct-25 02:30N 39°12' W 076°04'0 0.0
2017-Oct-24 22:03N 39°12' W 076°04'0 2.7
2017-Oct-24 21:57N 39°12' W 076°04'14 2.5
2017-Oct-24 16:31N 39°02' W 076°16'1 7.3
2017-Oct-24 16:25N 39°03' W 076°16'3 7.5
2017-Oct-24 16:00N 39°06' W 076°18'4 7.8
2017-Oct-24 15:30N 39°09' W 076°21'4 8.3
2017-Oct-24 15:00N 39°11' W 076°25'4 8.6
2017-Oct-24 14:29N 39°12' W 076°31'4 8.1
2017-Oct-24 14:00N 39°15' W 076°34'1 2.7
2017-Oct-24 13:29N 39°17' W 076°35'0 0.0
2017-Oct-24 12:59N 39°17' W 076°35'0 0.0
2017-Oct-24 12:29N 39°17' W 076°35'0 0.0
2017-Oct-24 11:59N 39°17' W 076°35'0 0.0
2017-Oct-24 11:29N 39°17' W 076°35'0 0.0
2017-Oct-24 10:59N 39°17' W 076°35'0 0.0
2017-Oct-24 10:29N 39°17' W 076°35'0 0.0
2017-Oct-24 09:59N 39°17' W 076°35'0 0.0
2017-Oct-24 09:29N 39°17' W 076°35'0 0.0
2017-Oct-24 08:59N 39°17' W 076°35'0 0.0
2017-Oct-24 08:29N 39°17' W 076°35'0 0.0
2017-Oct-24 07:53N 39°17' W 076°35'0 0.0
2017-Oct-24 07:26N 39°17' W 076°35'0 0.0
2017-Oct-24 06:59N 39°17' W 076°35'0 0.0
2017-Oct-24 06:29N 39°17' W 076°35'0 0.0
2017-Oct-24 05:59N 39°17' W 076°35'0 0.0
2017-Oct-24 05:29N 39°17' W 076°35'0 0.0
2017-Oct-24 04:59N 39°17' W 076°35'0 0.0
2017-Oct-24 04:29N 39°17' W 076°35'0 0.0
2017-Oct-24 03:56N 39°17' W 076°35'0 0.0
2017-Oct-24 03:29N 39°17' W 076°35'0 0.0
2017-Oct-24 02:59N 39°17' W 076°35'0 0.0
2017-Oct-24 02:29N 39°17' W 076°35'0 0.0
2017-Oct-24 01:59N 39°17' W 076°35'0 0.0
2017-Oct-24 01:29N 39°17' W 076°35'0 0.0
2017-Oct-24 00:59N 39°17' W 076°35'0 0.0
2017-Oct-24 00:29N 39°17' W 076°35'0 0.0
2017-Oct-23 23:59N 39°17' W 076°35'0 0.0
2017-Oct-23 23:29N 39°17' W 076°35'0 0.0
2017-Oct-23 22:59N 39°17' W 076°35'0 0.0
2017-Oct-23 22:29N 39°17' W 076°35'0 0.0
2017-Oct-23 21:59N 39°17' W 076°35'2 4.2
2017-Oct-23 21:30N 39°15' W 076°34'4 8.5
2017-Oct-23 21:00N 39°12' W 076°30'7 8.6
2017-Oct-23 20:12N 39°09' W 076°21'13 7.7
2017-Oct-23 18:30N 39°20' W 076°11'5 8.9
2017-Oct-23 17:58N 39°23' W 076°06'4 8.5
2017-Oct-23 17:30N 39°25' W 076°02'4 8.2
2017-Oct-23 17:00N 39°28' W 075°59'4 8.0
2017-Oct-23 16:30N 39°30' W 075°55'3 7.0
2017-Oct-23 16:00N 39°32' W 075°51'3 6.3
2017-Oct-23 15:30N 39°32' W 075°47'4 7.1
2017-Oct-23 15:00N 39°33' W 075°42'4 7.1
2017-Oct-23 14:30N 39°33' W 075°38'4 7.1
2017-Oct-23 14:00N 39°34' W 075°33'4 8.1
2017-Oct-23 13:30N 39°38' W 075°34'2 2.9
2017-Oct-23 12:59N 39°39' W 075°34'0 0.0
2017-Oct-23 12:29N 39°39' W 075°34'0 0.0
2017-Oct-23 11:59N 39°39' W 075°34'0 0.0
2017-Oct-23 11:29N 39°39' W 075°34'0 0.0
2017-Oct-23 10:59N 39°39' W 075°34'0 0.0
2017-Oct-23 10:29N 39°39' W 075°34'0 0.0
2017-Oct-23 09:59N 39°39' W 075°34'0 0.0
2017-Oct-23 09:29N 39°39' W 075°34'0 0.0
2017-Oct-23 08:59N 39°39' W 075°34'0 0.0
2017-Oct-23 08:29N 39°39' W 075°34'0 0.0
2017-Oct-23 07:59N 39°39' W 075°34'0 0.0
2017-Oct-23 07:29N 39°39' W 075°34'0 0.0
2017-Oct-23 06:59N 39°39' W 075°34'0 0.0
2017-Oct-23 06:29N 39°39' W 075°34'0 0.0
2017-Oct-23 05:59N 39°39' W 075°34'0 0.0
2017-Oct-23 05:29N 39°39' W 075°34'0 0.0
2017-Oct-23 04:59N 39°39' W 075°34'0 0.0
2017-Oct-23 04:29N 39°39' W 075°34'0 0.0
2017-Oct-23 03:59N 39°39' W 075°34'0 0.0
2017-Oct-23 03:29N 39°39' W 075°34'0 0.0
2017-Oct-23 02:59N 39°39' W 075°34'0 0.0
2017-Oct-23 02:29N 39°39' W 075°34'0 0.0
2017-Oct-23 01:59N 39°39' W 075°34'0 0.0
2017-Oct-23 01:29N 39°39' W 075°34'0 0.0
2017-Oct-23 00:59N 39°39' W 075°34'0 0.0
2017-Oct-23 00:29N 39°39' W 075°34'0 0.0
2017-Oct-22 23:59N 39°39' W 075°34'0 0.0
2017-Oct-22 23:29N 39°39' W 075°34'0 0.0
2017-Oct-22 22:59N 39°39' W 075°34'0 0.0
2017-Oct-22 22:29N 39°39' W 075°34'0 0.0
2017-Oct-22 21:59N 39°39' W 075°34'0 0.0
2017-Oct-22 21:29N 39°39' W 075°34'0 0.0
2017-Oct-22 20:59N 39°39' W 075°34'0 0.0
2017-Oct-22 20:29N 39°39' W 075°34'0 0.2
2017-Oct-22 19:59N 39°39' W 075°34'  
Track history (hours):
 
Tides and Currents Weather Stations Pressure Air Temp Water Temp Dewpoint Dewpoint Depression Visibility Wind Speed Wind Dir Waves Ship Positions

Kalmar Nyckel (United States)

Ship's website: http://www.kalmarnyckel.org/

Owner: KALMAR NYCKEL FOUNDATION, WILMINGTON, DE. More information available from US FCC via Universal Licensing System.

Last reported at 2017-Nov-01 19:33 UTC. Time now 2017-Nov-17 19:26 UTC.
Position N 39°44' W 075°32'.
Warning: this ship's position is 15 days out of date.

; draft 3.1 m.

Type: Ship. MMSI: 367004000.

Date/timePositionNaut miles runAvg speedWind from/ knotsBaromVisibWave heightAir tempDewpointWater temp
2017-Nov-01 19:33N 39°44' W 075°32'0 0.2
2017-Nov-01 19:30N 39°44' W 075°32'0 0.0
2017-Nov-01 19:00N 39°44' W 075°32'0 0.0
2017-Nov-01 18:30N 39°44' W 075°32'18 1.1
2017-Nov-01 02:00N 39°32' W 075°49'0 0.0
2017-Nov-01 01:30N 39°32' W 075°49'0 0.0
2017-Nov-01 01:00N 39°32' W 075°49'0 0.0
2017-Nov-01 00:30N 39°32' W 075°49'0 0.0
2017-Nov-01 00:00N 39°32' W 075°49'0 0.0
2017-Oct-31 23:30N 39°32' W 075°49'0 0.0
2017-Oct-31 23:00N 39°32' W 075°49'0 0.0
2017-Oct-31 22:30N 39°32' W 075°49'0 0.0
2017-Oct-31 22:00N 39°32' W 075°49'0 0.0
2017-Oct-31 21:30N 39°32' W 075°49'0 0.0
2017-Oct-31 21:00N 39°32' W 075°49'0 0.5
2017-Oct-31 20:30N 39°32' W 075°49'4 8.9
2017-Oct-31 20:00N 39°30' W 075°55'5 9.7
2017-Oct-31 19:30N 39°27' W 075°59'4 8.9
2017-Oct-31 19:00N 39°24' W 076°03'15 2.6
2017-Oct-31 13:08N 39°08' W 076°04'1 4.5
2017-Oct-31 12:57N 39°09' W 076°04'2 4.4
2017-Oct-31 12:31N 39°11' W 076°03'1 0.0
2017-Oct-29 19:18N 39°12' W 076°04'1 1.9
2017-Oct-29 19:01N 39°12' W 076°04'1 1.7
2017-Oct-29 18:28N 39°11' W 076°04'0 0.5
2017-Oct-29 18:00N 39°11' W 076°03'1 1.9
2017-Oct-29 17:26N 39°12' W 076°04'0 0.0
2017-Oct-29 06:50N 39°12' W 076°04'0 0.0
2017-Oct-29 06:30N 39°12' W 076°04'0 0.0
2017-Oct-29 05:10N 39°12' W 076°04'0 0.0
2017-Oct-29 05:01N 39°12' W 076°04'0 0.0
2017-Oct-29 04:30N 39°12' W 076°04'0 0.0
2017-Oct-29 03:56N 39°12' W 076°04'0 0.0
2017-Oct-28 16:22N 39°12' W 076°04'1 2.2
2017-Oct-28 15:42N 39°11' W 076°03'0 0.2
2017-Oct-28 15:30N 39°11' W 076°03'2 0.7
2017-Oct-28 13:12N 39°12' W 076°04'0 0.0
2017-Oct-28 12:27N 39°12' W 076°04'0 0.0
2017-Oct-28 12:00N 39°12' W 076°04'0 0.0
2017-Oct-28 11:28N 39°12' W 076°04'0 0.0
2017-Oct-28 11:01N 39°12' W 076°04'0 0.0
2017-Oct-28 10:29N 39°12' W 076°04'0 0.0
2017-Oct-28 10:00N 39°12' W 076°04'0 0.0
2017-Oct-28 09:30N 39°12' W 076°04'0 0.0
2017-Oct-28 09:00N 39°12' W 076°04'0 0.0
2017-Oct-28 08:31N 39°12' W 076°04'0 0.0
2017-Oct-28 02:20N 39°12' W 076°04'0 0.0
2017-Oct-28 00:02N 39°12' W 076°04'2 0.4
2017-Oct-27 19:59N 39°11' W 076°03'2 0.3
2017-Oct-27 14:09N 39°12' W 076°04'0 0.0
2017-Oct-27 13:58N 39°12' W 076°04'0 0.0
2017-Oct-27 13:30N 39°12' W 076°04'0 0.0
2017-Oct-27 13:00N 39°12' W 076°04'0 0.0
2017-Oct-27 12:30N 39°12' W 076°04'0 0.0
2017-Oct-27 12:00N 39°12' W 076°04'0 0.0
2017-Oct-27 11:29N 39°12' W 076°04'0 0.0
2017-Oct-27 07:18N 39°12' W 076°04'0 0.0
2017-Oct-27 05:22N 39°12' W 076°04'0 0.0
2017-Oct-25 12:51N 39°12' W 076°04'0 0.0
2017-Oct-25 12:30N 39°12' W 076°04'0 0.0
2017-Oct-25 11:56N 39°12' W 076°04'0 0.0
2017-Oct-25 11:28N 39°12' W 076°04'0 0.0
2017-Oct-25 10:55N 39°12' W 076°04'0 0.0
2017-Oct-25 10:26N 39°12' W 076°04'0 0.0
2017-Oct-25 09:58N 39°12' W 076°04'0 0.0
2017-Oct-25 09:26N 39°12' W 076°04'0 0.0
2017-Oct-25 08:59N 39°12' W 076°04'0 0.0
2017-Oct-25 08:26N 39°12' W 076°04'0 0.0
2017-Oct-25 07:57N 39°12' W 076°04'0 0.0
2017-Oct-25 07:19N 39°12' W 076°04'0 0.0
2017-Oct-25 06:59N 39°12' W 076°04'0 0.0
2017-Oct-25 06:31N 39°12' W 076°04'0 0.0
2017-Oct-25 06:00N 39°12' W 076°04'0 0.0
2017-Oct-25 05:30N 39°12' W 076°04'0 0.0
2017-Oct-25 05:00N 39°12' W 076°04'0 0.0
2017-Oct-25 04:31N 39°12' W 076°04'0 0.0
2017-Oct-25 04:01N 39°12' W 076°04'0 0.0
2017-Oct-25 03:30N 39°12' W 076°04'0 0.0
2017-Oct-25 03:01N 39°12' W 076°04'0 0.0
2017-Oct-25 02:30N 39°12' W 076°04'0 0.0
2017-Oct-24 22:03N 39°12' W 076°04'0 2.7
2017-Oct-24 21:57N 39°12' W 076°04'14 2.5
2017-Oct-24 16:31N 39°02' W 076°16'1 7.3
2017-Oct-24 16:25N 39°03' W 076°16'3 7.5
2017-Oct-24 16:00N 39°06' W 076°18'4 7.8
2017-Oct-24 15:30N 39°09' W 076°21'4 8.3
2017-Oct-24 15:00N 39°11' W 076°25'4 8.6
2017-Oct-24 14:29N 39°12' W 076°31'4 8.1
2017-Oct-24 14:00N 39°15' W 076°34'1 2.7
2017-Oct-24 13:29N 39°17' W 076°35'0 0.0
2017-Oct-24 12:59N 39°17' W 076°35'0 0.0
2017-Oct-24 12:29N 39°17' W 076°35'0 0.0
2017-Oct-24 11:59N 39°17' W 076°35'0 0.0
2017-Oct-24 11:29N 39°17' W 076°35'0 0.0
2017-Oct-24 10:59N 39°17' W 076°35'0 0.0
2017-Oct-24 10:29N 39°17' W 076°35'0 0.0
2017-Oct-24 09:59N 39°17' W 076°35'0 0.0
2017-Oct-24 09:29N 39°17' W 076°35'0 0.0
2017-Oct-24 08:59N 39°17' W 076°35'0 0.0
2017-Oct-24 08:29N 39°17' W 076°35'0 0.0
2017-Oct-24 07:53N 39°17' W 076°35'0 0.0
2017-Oct-24 07:26N 39°17' W 076°35'0 0.0
2017-Oct-24 06:59N 39°17' W 076°35'0 0.0
2017-Oct-24 06:29N 39°17' W 076°35'0 0.0
2017-Oct-24 05:59N 39°17' W 076°35'0 0.0
2017-Oct-24 05:29N 39°17' W 076°35'0 0.0
2017-Oct-24 04:59N 39°17' W 076°35'0 0.0
2017-Oct-24 04:29N 39°17' W 076°35'0 0.0
2017-Oct-24 03:56N 39°17' W 076°35'0 0.0
2017-Oct-24 03:29N 39°17' W 076°35'0 0.0
2017-Oct-24 02:59N 39°17' W 076°35'0 0.0
2017-Oct-24 02:29N 39°17' W 076°35'0 0.0
2017-Oct-24 01:59N 39°17' W 076°35'0 0.0
2017-Oct-24 01:29N 39°17' W 076°35'0 0.0
2017-Oct-24 00:59N 39°17' W 076°35'0 0.0
2017-Oct-24 00:29N 39°17' W 076°35'0 0.0
2017-Oct-23 23:59N 39°17' W 076°35'0 0.0
2017-Oct-23 23:29N 39°17' W 076°35'0 0.0
2017-Oct-23 22:59N 39°17' W 076°35'0 0.0
2017-Oct-23 22:29N 39°17' W 076°35'0 0.0
2017-Oct-23 21:59N 39°17' W 076°35'2 4.2
2017-Oct-23 21:30N 39°15' W 076°34'4 8.5
2017-Oct-23 21:00N 39°12' W 076°30'7 8.6
2017-Oct-23 20:12N 39°09' W 076°21'13 7.7
2017-Oct-23 18:30N 39°20' W 076°11'5 8.9
2017-Oct-23 17:58N 39°23' W 076°06'4 8.5
2017-Oct-23 17:30N 39°25' W 076°02'4 8.2
2017-Oct-23 17:00N 39°28' W 075°59'4 8.0
2017-Oct-23 16:30N 39°30' W 075°55'3 7.0
2017-Oct-23 16:00N 39°32' W 075°51'3 6.3
2017-Oct-23 15:30N 39°32' W 075°47'4 7.1
2017-Oct-23 15:00N 39°33' W 075°42'4 7.1
2017-Oct-23 14:30N 39°33' W 075°38'4 7.1
2017-Oct-23 14:00N 39°34' W 075°33'4 8.1
2017-Oct-23 13:30N 39°38' W 075°34'2 2.9
2017-Oct-23 12:59N 39°39' W 075°34'0 0.0
2017-Oct-23 12:29N 39°39' W 075°34'0 0.0
2017-Oct-23 11:59N 39°39' W 075°34'0 0.0
2017-Oct-23 11:29N 39°39' W 075°34'0 0.0
2017-Oct-23 10:59N 39°39' W 075°34'0 0.0
2017-Oct-23 10:29N 39°39' W 075°34'0 0.0
2017-Oct-23 09:59N 39°39' W 075°34'0 0.0
2017-Oct-23 09:29N 39°39' W 075°34'0 0.0
2017-Oct-23 08:59N 39°39' W 075°34'0 0.0
2017-Oct-23 08:29N 39°39' W 075°34'0 0.0
2017-Oct-23 07:59N 39°39' W 075°34'0 0.0
2017-Oct-23 07:29N 39°39' W 075°34'0 0.0
2017-Oct-23 06:59N 39°39' W 075°34'0 0.0
2017-Oct-23 06:29N 39°39' W 075°34'0 0.0
2017-Oct-23 05:59N 39°39' W 075°34'0 0.0
2017-Oct-23 05:29N 39°39' W 075°34'0 0.0
2017-Oct-23 04:59N 39°39' W 075°34'0 0.0
2017-Oct-23 04:29N 39°39' W 075°34'0 0.0
2017-Oct-23 03:59N 39°39' W 075°34'0 0.0
2017-Oct-23 03:29N 39°39' W 075°34'0 0.0
2017-Oct-23 02:59N 39°39' W 075°34'0 0.0
2017-Oct-23 02:29N 39°39' W 075°34'0 0.0
2017-Oct-23 01:59N 39°39' W 075°34'0 0.0
2017-Oct-23 01:29N 39°39' W 075°34'0 0.0
2017-Oct-23 00:59N 39°39' W 075°34'0 0.0
2017-Oct-23 00:29N 39°39' W 075°34'0 0.0
2017-Oct-22 23:59N 39°39' W 075°34'0 0.0
2017-Oct-22 23:29N 39°39' W 075°34'0 0.0
2017-Oct-22 22:59N 39°39' W 075°34'0 0.0
2017-Oct-22 22:29N 39°39' W 075°34'0 0.0
2017-Oct-22 21:59N 39°39' W 075°34'0 0.0
2017-Oct-22 21:29N 39°39' W 075°34'0 0.0
2017-Oct-22 20:59N 39°39' W 075°34'0 0.0
2017-Oct-22 20:29N 39°39' W 075°34'0 0.2
2017-Oct-22 19:59N 39°39' W 075°34'  

Dump ship's entire track history